createdAt,value
2023-03-03T00:04:28.232Z,489.48
2023-03-03T00:09:52.273Z,646.78
2023-03-03T00:15:24.288Z,696.08
2023-03-03T00:20:55.261Z,347.95
2023-03-03T00:26:30.283Z,602.33
2023-03-03T00:31:54.361Z,660.35
2023-03-03T00:37:35.360Z,557.90
2023-03-03T00:43:04.250Z,498.13
2023-03-03T00:48:33.279Z,491.05
2023-03-03T00:54:00.267Z,604.47
2023-03-03T00:59:25.273Z,427.20
2023-03-03T01:04:58.303Z,391.15
2023-03-03T01:10:26.285Z,415.67
2023-03-03T01:15:51.296Z,536.40
2023-03-03T01:21:16.264Z,413.13
2023-03-03T01:26:43.315Z,385.10
2023-03-03T01:32:08.303Z,371.65
2023-03-03T01:37:33.306Z,329.73
2023-03-03T01:43:01.296Z,319.00
2023-03-03T01:48:30.265Z,270.17
2023-03-03T01:53:59.302Z,287.52
2023-03-03T01:59:29.295Z,307.77
2023-03-03T02:04:55.311Z,223.85
2023-03-03T02:10:22.309Z,373.45
2023-03-03T02:15:50.370Z,282.38
2023-03-03T02:21:22.303Z,280.45
2023-03-03T02:26:51.297Z,189.93
2023-03-03T02:32:16.404Z,146.73
2023-03-03T02:37:41.371Z,205.90
2023-03-03T02:43:09.336Z,281.63
2023-03-03T02:48:34.381Z,148.85
2023-03-03T02:53:59.313Z,155.57
2023-03-03T02:59:28.304Z,148.85
2023-03-03T03:05:06.332Z,236.23
2023-03-03T03:10:31.336Z,105.85
2023-03-03T03:16:01.332Z,166.30
2023-03-03T03:21:26.354Z,250.43
2023-03-03T03:26:51.369Z,303.88
2023-03-03T03:32:21.359Z,199.18
2023-03-03T03:37:45.315Z,191.32
2023-03-03T03:43:10.323Z,190.60
2023-03-03T03:48:37.351Z,266.95
2023-03-03T03:54:04.360Z,219.50
2023-03-03T03:59:30.345Z,134.65
2023-03-03T04:05:04.321Z,300.38
2023-03-03T04:10:30.419Z,162.88
2023-03-03T04:15:57.405Z,568.17
2023-03-03T04:21:25.359Z,387.20
2023-03-03T04:26:50.405Z,341.17
2023-03-03T04:32:15.550Z,359.42
2023-03-03T04:37:43.354Z,477.08
2023-03-03T04:43:08.382Z,397.88
2023-03-03T04:48:33.400Z,249.20
2023-03-03T04:54:01.381Z,478.48
2023-03-03T04:59:26.409Z,397.73
2023-03-03T05:04:57.469Z,481.08
2023-03-03T05:10:25.382Z,493.77
2023-03-03T05:15:50.381Z,361.77
2023-03-03T05:21:16.394Z,450.83
2023-03-03T05:26:43.382Z,356.30
2023-03-03T05:32:09.427Z,408.42
2023-03-03T05:37:33.406Z,254.48
2023-03-03T05:43:01.432Z,299.63
2023-03-03T05:48:25.423Z,223.85
2023-03-03T05:53:50.354Z,264.73
2023-03-03T05:59:17.384Z,137.00
2023-03-03T06:04:48.379Z,99.97
2023-03-03T06:10:14.403Z,102.45
2023-03-03T06:15:45.429Z,96.57
2023-03-03T06:21:10.376Z,102.20
2023-03-03T06:26:34.402Z,69.63
2023-03-03T06:32:02.519Z,97.88
2023-03-03T06:37:27.381Z,69.45
2023-03-03T06:42:52.415Z,52.08
2023-03-03T06:48:19.396Z,65.40
2023-03-03T06:53:44.384Z,57.95
2023-03-03T06:59:12.400Z,53.35
2023-03-03T07:04:41.417Z,42.95
2023-03-03T07:10:07.432Z,20.55
2023-03-03T07:15:39.479Z,13.63
2023-03-03T07:21:06.405Z,19.13
2023-03-03T07:26:37.421Z,21.88
2023-03-03T07:32:03.449Z,18.75
2023-03-03T07:37:40.416Z,8.88
2023-03-03T07:43:05.429Z,11.80
2023-03-03T07:48:36.441Z,13.90
2023-03-03T07:54:03.442Z,11.18
2023-03-03T07:59:32.539Z,13.57
2023-03-03T08:04:59.553Z,10.38
2023-03-03T08:10:45.514Z,9.35
2023-03-03T08:16:15.511Z,9.60
2023-03-03T08:21:47.422Z,6.88
2023-03-03T08:27:15.444Z,10.05
2023-03-03T08:32:40.478Z,6.70
2023-03-03T08:38:05.481Z,8.05
2023-03-03T08:43:32.416Z,8.82
2023-03-03T08:48:58.421Z,10.57
2023-03-03T08:54:23.429Z,8.95
2023-03-03T08:59:51.455Z,9.23
2023-03-03T09:05:15.544Z,7.13
2023-03-03T09:10:42.420Z,6.53
2023-03-03T09:16:09.505Z,5.60
2023-03-03T09:21:40.464Z,5.70
2023-03-03T09:27:05.473Z,6.95
2023-03-03T09:32:44.487Z,7.82
2023-03-03T09:38:09.519Z,7.43
2023-03-03T09:43:46.444Z,5.75
2023-03-03T09:49:26.563Z,5.57
2023-03-03T09:55:02.448Z,6.35
2023-03-03T10:00:46.473Z,5.75
2023-03-03T10:06:29.517Z,5.00
2023-03-03T10:12:00.473Z,6.18
2023-03-03T10:17:41.553Z,7.10
2023-03-03T10:23:27.615Z,6.60
2023-03-03T10:29:24.475Z,6.43
2023-03-03T10:35:04.529Z,6.65
2023-03-03T10:40:42.479Z,238.15
2023-03-03T10:46:21.487Z,8.63
2023-03-03T10:51:53.499Z,7.68
2023-03-03T10:57:29.469Z,8.52
2023-03-03T11:03:05.538Z,8.40
2023-03-03T11:08:36.460Z,7.85
2023-03-03T11:14:11.499Z,7.97
2023-03-03T11:20:03.696Z,8.10
2023-03-03T11:25:43.487Z,10.05
2023-03-03T11:31:22.509Z,8.95
2023-03-03T11:36:50.501Z,8.77
2023-03-03T11:42:28.532Z,8.23
2023-03-03T11:48:12.522Z,8.93
2023-03-03T11:53:58.518Z,8.32
2023-03-03T11:59:52.502Z,8.65
2023-03-03T12:05:29.553Z,7.97
2023-03-03T12:11:00.507Z,8.65
2023-03-03T12:16:31.518Z,10.38
2023-03-03T12:22:18.567Z,9.55
2023-03-03T12:27:51.605Z,8.48
2023-03-03T12:33:29.490Z,7.68
2023-03-03T12:39:04.532Z,8.35
2023-03-03T12:44:37.517Z,7.45
2023-03-03T12:50:17.518Z,8.38
2023-03-03T12:55:51.544Z,8.98
2023-03-03T13:01:34.525Z,8.35
2023-03-03T13:07:13.549Z,8.75
2023-03-03T13:12:49.577Z,8.60
2023-03-03T13:18:36.537Z,7.78
2023-03-03T13:24:07.557Z,7.35
2023-03-03T13:29:38.527Z,7.88
2023-03-03T13:35:11.559Z,8.33
2023-03-03T13:40:40.558Z,8.65
2023-03-03T13:46:17.562Z,8.45
2023-03-03T13:51:52.541Z,8.27
2023-03-03T13:57:34.561Z,8.27
2023-03-03T14:03:37.524Z,7.07
2023-03-03T14:09:22.566Z,8.48
2023-03-03T14:14:57.563Z,7.38
2023-03-03T14:20:33.571Z,7.35
2023-03-03T14:26:13.570Z,8.30
2023-03-03T14:31:39.601Z,7.60
2023-03-03T14:37:05.571Z,7.53
2023-03-03T14:42:51.592Z,9.77
2023-03-03T14:48:26.767Z,8.15
2023-03-03T14:53:54.610Z,8.82
2023-03-03T14:59:37.565Z,7.57
2023-03-03T15:05:28.595Z,8.75
2023-03-03T15:10:54.617Z,7.97
2023-03-03T15:16:27.634Z,7.80
2023-03-03T15:22:01.572Z,7.40
2023-03-03T15:27:34.567Z,7.57
2023-03-03T15:33:08.671Z,7.22
2023-03-03T15:38:44.606Z,5.85
2023-03-03T15:44:21.601Z,7.65
2023-03-03T15:50:09.641Z,6.55
2023-03-03T15:55:47.580Z,7.05
2023-03-03T16:01:22.636Z,6.57
2023-03-03T16:07:06.735Z,6.72
2023-03-03T16:12:40.647Z,6.68
2023-03-03T16:18:12.604Z,6.55
2023-03-03T16:23:55.602Z,6.45
2023-03-03T16:29:37.718Z,6.38
2023-03-03T16:35:07.629Z,6.40
2023-03-03T16:40:38.597Z,6.93
2023-03-03T16:46:08.687Z,5.95
2023-03-03T16:51:50.602Z,6.60
2023-03-03T16:57:30.649Z,5.80
2023-03-03T17:03:36.604Z,6.63
2023-03-03T17:09:32.969Z,6.60
2023-03-03T17:15:13.639Z,7.78
2023-03-03T17:20:47.637Z,6.72
2023-03-03T17:26:24.622Z,6.50
2023-03-03T17:32:01.687Z,6.20
2023-03-03T17:37:40.614Z,6.20
2023-03-03T17:43:14.612Z,5.80
2023-03-03T17:49:06.621Z,5.93
2023-03-03T17:54:41.636Z,7.03
2023-03-03T18:00:27.661Z,5.85
2023-03-03T18:06:22.651Z,14.93
2023-03-03T18:12:01.627Z,5.25
2023-03-03T18:17:43.641Z,5.00
2023-03-03T18:23:10.642Z,5.03
2023-03-03T18:28:52.637Z,4.93
2023-03-03T18:34:22.755Z,5.03
2023-03-03T18:39:55.678Z,5.13
2023-03-03T18:45:52.680Z,4.70
2023-03-03T18:51:17.679Z,4.63
2023-03-03T18:57:02.633Z,6.43
2023-03-03T19:02:38.665Z,5.50
2023-03-03T19:08:08.657Z,4.60
2023-03-03T19:13:53.708Z,5.18
2023-03-03T19:19:23.942Z,5.95
2023-03-03T19:24:48.664Z,5.20
2023-03-03T19:30:35.660Z,5.45
2023-03-03T19:36:23.663Z,5.30
2023-03-03T19:42:06.654Z,5.60
2023-03-03T19:47:45.677Z,5.70
2023-03-03T19:53:21.662Z,5.38
2023-03-03T19:58:55.698Z,5.57
2023-03-03T20:04:34.779Z,4.88
2023-03-03T20:10:07.685Z,4.80
2023-03-03T20:15:35.662Z,5.10
2023-03-03T20:21:16.683Z,5.10
2023-03-03T20:26:46.696Z,4.95
2023-03-03T20:32:21.717Z,5.00
2023-03-03T20:37:59.681Z,5.28
2023-03-03T20:43:44.699Z,5.45
2023-03-03T20:49:19.719Z,5.78
2023-03-03T20:54:55.689Z,6.00
2023-03-03T21:00:27.701Z,5.93
2023-03-03T21:06:13.784Z,5.72
2023-03-03T21:11:53.796Z,6.07
2023-03-03T21:17:41.719Z,6.22
2023-03-03T21:23:08.713Z,5.95
2023-03-03T21:28:39.722Z,5.97
2023-03-03T21:34:09.166Z,6.25
2023-03-03T21:40:00.695Z,6.20
2023-03-03T21:45:30.726Z,6.30
2023-03-03T21:50:56.731Z,6.85
2023-03-03T21:56:22.700Z,6.82
2023-03-03T22:01:49.826Z,6.32
2023-03-03T22:07:20.774Z,7.22
2023-03-03T22:12:45.727Z,7.20
2023-03-03T22:18:12.732Z,7.53
2023-03-03T22:23:37.724Z,7.20
2023-03-03T22:29:01.756Z,7.75
2023-03-03T22:34:22.743Z,7.43
2023-03-03T22:39:47.893Z,7.32
2023-03-03T22:45:11.732Z,8.40
2023-03-03T22:50:39.724Z,9.48
2023-03-03T22:56:03.757Z,8.52
2023-03-03T23:01:28.735Z,8.88
2023-03-03T23:07:03.749Z,8.63
2023-03-03T23:12:28.774Z,9.25
2023-03-03T23:17:52.780Z,10.15
2023-03-03T23:23:20.748Z,11.15
2023-03-03T23:28:44.762Z,10.05
2023-03-03T23:34:09.770Z,10.10
2023-03-03T23:39:36.869Z,9.68
2023-03-03T23:45:01.803Z,9.30
2023-03-03T23:50:28.741Z,10.20
2023-03-03T23:55:56.755Z,10.07
